Time;durP1;ratioP1;P1;durP2;ratioP2;P2;SDS_P1;SDS_P2;PMS_P1;PMS_P2;Temp;Humidity;BMP_temperature;BMP_pressure;BME280_temperature;BME280_humidity;BME280_pressure;Samples;Min_cycle;Max_cycle;Signal;HPM_P1;HPM_P2
2023/01/21 04:13:34;;;;;;;19.80;5.40;;;;;;;9.94;90.02;101271.64;104687;1298;22551;-54
2023/01/21 04:16:01;;;;;;;19.70;4.50;;;;;;;10.06;89.11;101278.42;105999;1281;24283;-54
2023/01/21 04:18:29;;;;;;;34.20;5.50;;;;;;;10.17;88.37;101283.88;105996;1281;25436;-54
2023/01/21 04:20:56;;;;;;;21.30;5.10;;;;;;;10.26;88.04;101290.36;105749;1286;379179;-55
2023/01/21 04:23:23;;;;;;;17.80;6.20;;;;;;;10.33;87.64;101301.20;106304;1279;24262;-54
2023/01/21 04:25:51;;;;;;;22.40;4.50;;;;;;;10.40;87.44;101299.89;106302;1281;25499;-54
2023/01/21 04:28:18;;;;;;;22.70;6.10;;;;;;;10.48;87.10;101303.60;105803;1286;24272;-53
2023/01/21 04:30:46;;;;;;;24.30;5.70;;;;;;;10.54;86.77;101306.66;106296;1282;22545;-53
2023/01/21 04:33:13;;;;;;;21.30;5.10;;;;;;;10.61;86.33;101317.50;105937;1283;22840;-54
2023/01/21 04:35:40;;;;;;;17.60;4.70;;;;;;;10.66;85.99;101321.77;106339;1279;25499;-55
2023/01/21 04:38:07;;;;;;;17.50;4.70;;;;;;;10.70;85.76;101320.67;106246;1286;25421;-54
2023/01/21 04:40:35;;;;;;;18.50;5.10;;;;;;;10.74;85.43;101317.85;106339;1272;25301;-54
2023/01/21 04:43:02;;;;;;;17.00;4.30;;;;;;;10.80;85.00;101326.27;105991;1283;25367;-53
2023/01/21 04:45:29;;;;;;;15.60;3.70;;;;;;;10.84;84.54;101331.95;105981;1279;25833;-53
2023/01/21 04:47:56;;;;;;;27.10;4.20;;;;;;;10.88;84.07;101332.40;106313;1279;25335;-53
2023/01/21 04:50:24;;;;;;;22.30;6.00;;;;;;;10.92;83.71;101329.56;106278;1279;25391;-55
2023/01/21 04:52:51;;;;;;;14.50;4.20;;;;;;;10.94;83.28;101328.66;105901;1286;23883;-54
2023/01/21 04:55:18;;;;;;;17.10;4.70;;;;;;;10.98;82.91;101327.41;106001;1284;22526;-53
2023/01/21 04:57:45;;;;;;;22.40;4.70;;;;;;;11.01;82.45;101345.94;106462;1280;25335;-53
2023/01/21 05:03:33;;;;;;;18.70;4.20;;;;;;;11.21;81.12;101371.52;103812;1297;545300;-54
2023/01/21 05:06:00;;;;;;;16.50;3.80;;;;;;;11.16;80.62;101381.31;106054;1280;24398;-54
2023/01/21 05:08:27;;;;;;;14.20;3.90;;;;;;;11.10;80.49;101386.44;106576;1272;24331;-54
2023/01/21 05:10:54;;;;;;;16.10;4.50;;;;;;;11.09;80.34;101399.29;106713;1276;22541;-53
2023/01/21 05:13:21;;;;;;;9.70;4.00;;;;;;;11.10;80.15;101405.36;106308;1276;24347;-53
2023/01/21 05:15:48;;;;;;;17.60;3.90;;;;;;;11.11;79.82;101414.55;106573;1273;24256;-53
2023/01/21 05:18:16;;;;;;;13.60;3.50;;;;;;;11.12;79.36;101424.09;106614;1272;220836;-53
2023/01/21 05:20:43;;;;;;;13.90;3.90;;;;;;;11.11;78.94;101431.22;106796;1271;22625;-54
2023/01/21 05:23:10;;;;;;;19.90;4.30;;;;;;;11.11;78.69;101439.73;106157;1270;1002837;-53
2023/01/21 05:25:37;;;;;;;15.10;4.80;;;;;;;11.10;78.38;101441.84;106781;1270;24376;-54
2023/01/21 05:28:04;;;;;;;17.30;4.40;;;;;;;11.11;78.02;101448.05;106698;1270;24485;-53
2023/01/21 05:30:31;;;;;;;16.00;3.70;;;;;;;11.10;77.72;101452.95;106726;1270;22608;-53
2023/01/21 05:32:58;;;;;;;11.40;3.40;;;;;;;11.10;77.31;101456.77;106677;1272;22561;-53
2023/01/21 05:35:25;;;;;;;13.60;3.40;;;;;;;11.09;77.13;101471.52;106985;1269;24326;-53
2023/01/21 05:37:53;;;;;;;12.10;2.90;;;;;;;11.07;76.90;101476.41;106772;1271;24465;-53
2023/01/21 05:40:20;;;;;;;16.40;3.20;;;;;;;11.07;76.81;101483.37;106703;1268;25512;-53
2023/01/21 05:42:47;;;;;;;8.50;2.90;;;;;;;11.07;76.55;101483.71;106647;1274;25539;-53
2023/01/21 05:45:14;;;;;;;9.00;2.50;;;;;;;11.05;76.35;101487.20;106622;1268;24335;-53
2023/01/21 05:47:41;;;;;;;8.80;3.30;;;;;;;11.06;76.10;101495.70;106619;1267;25454;-53
2023/01/21 05:50:09;;;;;;;8.70;2.30;;;;;;;11.05;75.78;101501.44;106742;1267;24270;-54
2023/01/21 05:52:37;;;;;;;8.00;2.20;;;;;;;11.05;75.55;101494.33;106585;1267;22528;-53
2023/01/21 05:55:04;;;;;;;7.70;2.70;;;;;;;11.05;75.19;101500.91;106622;1269;22759;-53
2023/01/21 05:57:31;;;;;;;8.70;2.70;;;;;;;11.05;75.02;101508.20;106605;1274;24262;-53
2023/01/21 05:59:58;;;;;;;8.60;2.50;;;;;;;11.05;74.69;101511.52;106933;1267;24232;-53
2023/01/21 06:02:25;;;;;;;8.60;3.00;;;;;;;11.04;74.41;101515.70;106151;1268;1002556;-53
2023/01/21 06:04:53;;;;;;;7.30;2.30;;;;;;;11.03;74.13;101516.40;107055;1269;22641;-53
2023/01/21 06:07:20;;;;;;;7.20;2.30;;;;;;;11.01;73.84;101516.77;106961;1268;22526;-53
2023/01/21 06:09:47;;;;;;;7.90;2.70;;;;;;;11.01;73.72;101516.77;106853;1271;22528;-52
2023/01/21 06:12:14;;;;;;;8.70;3.00;;;;;;;11.02;73.19;101519.02;106725;1276;24297;-52
2023/01/21 06:14:41;;;;;;;5.80;2.10;;;;;;;11.02;72.51;101527.35;106881;1267;22606;-52
2023/01/21 06:17:08;;;;;;;2.50;1.70;;;;;;;11.03;71.95;101525.25;106817;1269;22618;-52
2023/01/21 06:19:35;;;;;;;3.40;2.20;;;;;;;11.05;71.41;101531.65;106681;1268;24344;-52
2023/01/21 06:22:03;;;;;;;2.60;2.10;;;;;;;11.11;70.61;101538.70;106656;1268;22605;-51
2023/01/21 06:24:30;;;;;;;3.50;1.90;;;;;;;11.17;70.14;101519.88;106679;1268;25454;-51
2023/01/21 06:26:57;;;;;;;2.80;2.00;;;;;;;11.27;69.63;101508.28;106635;1269;24413;-51
2023/01/21 06:29:24;;;;;;;5.30;1.70;;;;;;;11.39;68.82;101512.48;106734;1269;24234;-50
2023/01/21 06:31:51;;;;;;;3.10;1.80;;;;;;;11.49;68.05;101518.43;106830;1268;26693;-50
2023/01/21 06:34:18;;;;;;;5.90;1.90;;;;;;;11.60;67.19;101515.49;106863;1275;22583;-50
2023/01/21 06:36:45;;;;;;;5.60;1.90;;;;;;;11.72;66.49;101512.58;106639;1268;22552;-50
2023/01/21 06:39:13;;;;;;;1.70;1.50;;;;;;;11.85;65.94;101520.90;106440;1272;23139;-51
2023/01/21 06:41:40;;;;;;;3.40;1.70;;;;;;;11.97;64.98;101526.29;106448;1272;24816;-50
2023/01/21 06:44:07;;;;;;;1.80;1.50;;;;;;;12.04;64.05;101531.21;106802;1273;22532;-51
2023/01/21 06:46:34;;;;;;;2.80;1.40;;;;;;;12.07;63.53;101532.20;106759;1271;22533;-51
2023/01/21 06:49:01;;;;;;;1.90;1.40;;;;;;;12.08;62.95;101537.75;106872;1268;25319;-50
2023/01/21 06:51:28;;;;;;;2.10;1.40;;;;;;;12.07;62.59;101535.69;106829;1268;24224;-50
2023/01/21 06:53:56;;;;;;;2.80;1.40;;;;;;;12.04;62.17;101531.55;106712;1268;22773;-50
2023/01/21 06:56:23;;;;;;;2.90;1.20;;;;;;;11.96;61.87;101541.09;106653;1268;22641;-50
2023/01/21 06:58:50;;;;;;;3.80;2.10;;;;;;;11.92;61.35;101555.23;106664;1268;25476;-50
2023/01/21 07:01:17;;;;;;;7.70;2.80;;;;;;;11.89;61.19;101566.73;106695;1269;22763;-50
2023/01/21 10:19:21;;;;;;;6.40;3.60;;;;;;;10.06;73.75;101800.80;104526;1295;560603;-58
2023/01/21 10:21:59;;;;;;;9.80;3.80;;;;;;;11.21;68.53;101798.75;106027;1281;22754;-56
2023/01/21 10:24:34;;;;;;;11.00;4.20;;;;;;;11.44;67.24;101800.30;106017;1282;22542;-57
2023/01/21 10:27:01;;;;;;;6.10;3.00;;;;;;;11.45;67.08;101798.89;105789;1281;23136;-57
2023/01/21 10:29:29;;;;;;;9.90;2.70;;;;;;;11.53;66.73;101798.99;105885;1289;25442;-57
2023/01/21 10:32:02;;;;;;;6.90;2.70;;;;;;;11.63;66.42;101799.08;105918;1273;222326;-57
2023/01/21 10:34:33;;;;;;;9.60;3.00;;;;;;;11.73;65.65;101806.14;105759;1279;25419;-58
2023/01/21 10:37:11;;;;;;;6.30;2.70;;;;;;;11.82;65.09;101809.17;106315;1286;24228;-57
2023/01/21 10:39:58;;;;;;;6.30;3.00;;;;;;;11.91;64.63;101811.52;106331;1282;22540;-57
2023/01/21 10:42:47;;;;;;;5.80;2.70;;;;;;;12.01;64.07;101810.89;106340;1279;25389;-57
2023/01/21 10:45:20;;;;;;;6.20;3.00;;;;;;;12.11;63.71;101814.95;106386;1276;26574;-58
2023/01/21 10:48:11;;;;;;;5.60;2.80;;;;;;;12.20;63.36;101816.92;106143;1283;25333;-58
2023/01/21 10:50:44;;;;;;;8.30;3.20;;;;;;;12.27;63.03;101821.55;106308;1278;22533;-58
2023/01/21 10:53:22;;;;;;;3.80;2.20;;;;;;;12.30;62.89;101818.04;106758;1270;22597;-58
2023/01/21 10:55:52;;;;;;;4.90;2.60;;;;;;;12.35;62.81;101818.67;106760;1275;25498;-58
2023/01/21 10:58:27;;;;;;;8.60;3.10;;;;;;;12.39;62.79;101824.02;106704;1269;25338;-58
2023/01/21 11:00:54;;;;;;;8.40;2.50;;;;;;;12.44;62.76;101823.08;106805;1269;27485;-58
2023/01/21 11:03:37;;;;;;;4.70;2.60;;;;;;;12.51;62.69;101827.00;106742;1255;25425;-58
2023/01/21 11:06:05;;;;;;;9.20;2.80;;;;;;;12.59;62.52;101829.67;106790;1276;22534;-57
2023/01/21 11:08:32;;;;;;;6.90;3.00;;;;;;;12.66;62.45;101830.45;106740;1272;22530;-57
2023/01/21 11:11:00;;;;;;;7.20;2.70;;;;;;;12.74;62.36;101828.61;106764;1270;25379;-58
2023/01/21 11:13:27;;;;;;;7.80;3.20;;;;;;;12.82;62.22;101832.66;106801;1270;26513;-57
2023/01/21 11:15:57;;;;;;;6.50;2.70;;;;;;;12.90;62.00;101837.61;106992;1275;25363;-57
2023/01/21 11:18:28;;;;;;;10.80;3.10;;;;;;;12.96;61.67;101842.56;106987;1271;25354;-57
2023/01/21 11:20:58;;;;;;;8.30;3.10;;;;;;;13.02;61.42;101846.83;107012;1267;25503;-57
2023/01/21 11:23:35;;;;;;;5.50;2.50;;;;;;;13.02;61.45;101847.35;107137;1269;23498;-58
2023/01/21 11:26:27;;;;;;;9.40;3.00;;;;;;;13.04;61.50;101847.70;107037;1267;25323;-57
2023/01/21 11:29:10;;;;;;;7.70;2.80;;;;;;;13.06;61.44;101849.77;106704;1273;25514;-58
2023/01/21 11:31:37;;;;;;;5.40;2.60;;;;;;;13.08;61.61;101850.08;106694;1273;25491;-58
2023/01/21 11:34:06;;;;;;;5.40;2.50;;;;;;;13.13;61.41;101851.07;106517;1269;25339;-58
2023/01/21 11:36:33;;;;;;;7.90;2.60;;;;;;;13.14;61.42;101859.41;106663;1273;25335;-58
2023/01/21 11:39:02;;;;;;;6.40;2.50;;;;;;;13.20;61.32;101857.25;106525;1273;25453;-58
2023/01/21 11:41:29;;;;;;;5.60;2.20;;;;;;;13.23;61.07;101856.14;106576;1279;22592;-57
2023/01/21 11:44:16;;;;;;;8.10;2.30;;;;;;;13.23;60.96;101855.45;106660;1277;22666;-57
2023/01/21 11:46:44;;;;;;;4.90;2.70;;;;;;;13.24;60.83;101858.23;106714;1279;25564;-57
2023/01/21 11:49:11;;;;;;;4.70;2.40;;;;;;;13.22;60.82;101862.42;106504;1276;25369;-57
2023/01/21 11:51:40;;;;;;;11.50;2.40;;;;;;;13.21;60.83;101864.02;106688;1272;25408;-57
2023/01/21 11:54:12;;;;;;;4.30;2.00;;;;;;;13.21;60.75;101865.94;106446;1276;25636;-58
2023/01/21 11:56:42;;;;;;;6.60;2.30;;;;;;;13.21;60.88;101867.67;106686;1278;25348;-57
2023/01/21 11:59:40;;;;;;;7.40;2.50;;;;;;;13.22;60.94;101870.28;106296;1275;26164;-57
2023/01/21 12:02:22;;;;;;;3.90;2.30;;;;;;;13.23;61.02;101873.55;106645;1272;22518;-58
2023/01/21 12:04:54;;;;;;;4.60;2.80;;;;;;;13.24;61.09;101875.47;106774;1273;22563;-57
2023/01/21 12:07:24;;;;;;;5.70;2.20;;;;;;;13.25;61.00;101878.61;106800;1275;25373;-57
2023/01/21 12:10:07;;;;;;;3.80;2.00;;;;;;;13.25;61.06;101881.73;107025;1271;22574;-58
2023/01/21 12:12:46;;;;;;;5.70;2.10;;;;;;;13.26;61.08;101887.29;106984;1264;25411;-57
2023/01/21 12:15:40;;;;;;;5.00;2.00;;;;;;;13.26;61.14;101887.98;106774;1275;25331;-58
2023/01/21 12:18:22;;;;;;;3.20;1.70;;;;;;;13.26;61.26;101888.52;106788;1272;22569;-57
2023/01/21 12:21:27;;;;;;;9.20;2.30;;;;;;;13.26;61.24;101893.04;107007;1261;25418;-57
2023/01/21 12:24:29;;;;;;;6.20;2.60;;;;;;;13.24;61.47;101890.64;106979;1267;25418;-57
2023/01/21 12:27:08;;;;;;;2.70;1.90;;;;;;;13.25;61.56;101897.77;106367;1279;25406;-57
2023/01/21 12:29:59;;;;;;;4.80;2.20;;;;;;;13.27;61.63;101900.00;106350;1277;25511;-58
2023/01/21 12:32:30;;;;;;;3.80;1.60;;;;;;;13.28;61.79;101907.48;106371;1276;25499;-58
2023/01/21 12:35:16;;;;;;;12.80;2.50;;;;;;;13.30;61.91;101914.06;106295;1274;22536;-58
2023/01/21 12:37:47;;;;;;;5.90;2.00;;;;;;;13.32;61.94;101919.45;106371;1260;25457;-57
2023/01/21 12:40:34;;;;;;;10.30;2.20;;;;;;;13.33;62.02;101923.79;106421;1276;22600;-57
2023/01/21 12:43:05;;;;;;;4.10;1.70;;;;;;;13.34;62.04;101929.87;106339;1277;22670;-58
2023/01/21 12:45:37;;;;;;;5.00;2.10;;;;;;;13.34;62.06;101929.17;106352;1283;25480;-58
2023/01/21 12:48:17;;;;;;;3.70;1.80;;;;;;;13.35;62.18;101931.94;106340;1278;22606;-57
2023/01/21 12:50:51;;;;;;;4.00;1.80;;;;;;;13.34;62.19;101929.52;106333;1276;26498;-58
2023/01/21 12:53:34;;;;;;;5.80;1.70;;;;;;;13.33;62.29;101933.20;106262;1261;22556;-58
2023/01/21 12:56:14;;;;;;;3.80;1.80;;;;;;;13.32;62.41;101932.33;106337;1278;22553;-58
2023/01/21 12:58:45;;;;;;;6.40;1.90;;;;;;;13.34;62.47;101932.66;106381;1279;25349;-58
2023/01/21 13:01:15;;;;;;;3.50;1.20;;;;;;;13.34;62.55;101938.75;106314;1277;25422;-58
2023/01/21 13:04:23;;;;;;;5.70;2.10;;;;;;;13.35;62.54;101941.02;106432;1275;22530;-58
2023/01/21 13:06:55;;;;;;;5.90;1.60;;;;;;;13.35;62.53;101947.27;106477;1275;25427;-58
2023/01/21 13:09:40;;;;;;;9.40;2.20;;;;;;;13.36;62.66;101949.54;106239;1280;25403;-58
2023/01/21 13:12:12;;;;;;;7.80;2.30;;;;;;;13.41;62.58;101950.85;106392;1275;25516;-57
2023/01/21 13:14:41;;;;;;;6.30;2.20;;;;;;;13.45;62.33;101961.07;106370;1275;25278;-58
2023/01/21 13:17:18;;;;;;;7.80;1.90;;;;;;;13.52;62.03;101963.59;106357;1275;22542;-58
2023/01/21 13:19:45;;;;;;;6.30;1.60;;;;;;;13.52;62.00;101964.80;106379;1275;25457;-58
2023/01/21 13:22:37;;;;;;;2.00;1.20;;;;;;;13.52;62.03;101970.90;106328;1282;25334;-58
2023/01/21 13:25:23;;;;;;;3.60;1.50;;;;;;;13.51;62.06;101977.04;106397;1275;25428;-58
2023/01/21 13:27:59;;;;;;;6.10;1.80;;;;;;;13.46;62.04;101988.42;106396;1282;25413;-58
2023/01/21 13:30:42;;;;;;;6.40;1.40;;;;;;;13.42;62.37;101989.90;106369;1276;25398;-58
2023/01/21 13:33:13;;;;;;;8.20;2.10;;;;;;;13.44;62.35;101987.93;106290;1277;25358;-58
2023/01/21 13:35:44;;;;;;;7.20;2.20;;;;;;;13.39;62.45;101989.39;106362;1276;25369;-58
2023/01/21 13:38:14;;;;;;;6.30;1.70;;;;;;;13.38;62.57;101984.36;106442;1280;25470;-58
2023/01/21 13:40:47;;;;;;;5.60;1.90;;;;;;;13.38;62.50;101984.54;106243;1280;25447;-58
2023/01/21 13:43:37;;;;;;;6.00;1.80;;;;;;;13.42;62.33;101986.73;106544;1275;24292;-58
2023/01/21 13:46:06;;;;;;;6.60;2.00;;;;;;;13.42;62.26;101988.48;107167;1272;25373;-58
2023/01/21 13:48:45;;;;;;;6.00;1.70;;;;;;;13.40;62.36;101990.42;107044;1260;25477;-58
2023/01/21 13:51:41;;;;;;;4.80;2.00;;;;;;;13.40;62.36;101996.70;107043;1267;25466;-58
2023/01/21 13:54:42;;;;;;;4.90;1.50;;;;;;;13.39;62.29;102001.42;106984;1267;25422;-58
2023/01/21 14:00:31;;;;;;;5.70;1.80;;;;;;;13.36;62.32;101998.33;103639;1293;545054;-57
2023/01/21 14:03:07;;;;;;;7.50;2.30;;;;;;;13.33;62.31;101998.56;105866;1282;23320;-57
2023/01/21 14:05:44;;;;;;;8.70;3.20;;;;;;;13.28;62.46;102007.66;105900;1282;26190;-59
2023/01/21 14:08:18;;;;;;;5.20;1.50;;;;;;;13.25;62.39;102010.48;105799;1282;22555;-60
2023/01/21 14:10:58;;;;;;;9.50;1.90;;;;;;;13.22;62.64;102011.23;106237;1283;27161;-58
2023/01/21 14:13:44;;;;;;;7.00;2.20;;;;;;;13.19;62.58;102011.63;105893;1280;214084;-59
2023/01/21 14:16:36;;;;;;;5.90;1.80;;;;;;;13.15;62.62;102008.71;106493;1278;24218;-59
2023/01/21 14:19:06;;;;;;;;;;;;;;;13.04;62.70;102006.21;106592;1279;22713;-59
2023/01/21 14:21:42;;;;;;;11.60;2.90;;;;;;;12.90;62.90;102009.84;106512;1273;24352;-57
2023/01/21 14:24:27;;;;;;;7.50;2.60;;;;;;;12.79;62.94;102014.33;106677;1274;24285;-58
2023/01/21 14:27:32;;;;;;;11.50;2.90;;;;;;;12.70;63.10;102016.52;106469;1273;24471;-57
2023/01/21 14:30:08;;;;;;;5.90;2.30;;;;;;;12.59;63.21;102015.23;106582;1274;22568;-58
2023/01/21 14:33:01;;;;;;;8.00;2.50;;;;;;;12.50;63.63;102020.02;106586;1273;24275;-58
2023/01/21 14:35:34;;;;;;;9.20;1.80;;;;;;;12.42;63.90;102025.49;106590;1274;22534;-59
2023/01/21 14:38:17;;;;;;;9.70;2.80;;;;;;;12.35;63.97;102030.44;106618;1267;24258;-59
2023/01/21 14:40:47;;;;;;;8.80;2.30;;;;;;;12.27;64.22;102033.63;106420;1273;24277;-57
2023/01/21 14:43:39;;;;;;;10.10;2.80;;;;;;;12.21;64.34;102036.11;106425;1273;25306;-57
2023/01/21 14:46:32;;;;;;;8.50;2.60;;;;;;;12.15;64.57;102033.73;106719;1271;24275;-57
2023/01/21 14:49:06;;;;;;;11.20;2.60;;;;;;;12.11;64.75;102035.34;105861;1285;24227;-57
2023/01/21 14:51:43;;;;;;;9.10;2.30;;;;;;;12.07;64.90;102041.27;105861;1283;22675;-57
2023/01/21 14:54:13;;;;;;;8.40;2.80;;;;;;;12.06;65.02;102045.80;106005;1283;24291;-57
2023/01/21 14:56:53;;;;;;;9.30;2.80;;;;;;;12.04;65.15;102049.13;105954;1281;23989;-57
2023/01/21 14:59:40;;;;;;;8.60;2.10;;;;;;;12.03;65.09;102043.92;106027;1282;22780;-57
2023/01/21 15:02:27;;;;;;;5.10;2.00;;;;;;;11.82;65.77;102054.85;105965;1280;24269;-57
2023/01/21 15:04:59;;;;;;;12.70;2.40;;;;;;;11.76;66.06;102057.30;106072;1267;22550;-57
2023/01/21 15:07:33;;;;;;;7.90;2.10;;;;;;;11.75;66.13;102058.34;105965;1282;22549;-57
2023/01/21 15:10:03;;;;;;;4.30;1.70;;;;;;;11.75;66.23;102064.44;105929;1283;23016;-57
2023/01/21 15:12:31;;;;;;;8.80;2.60;;;;;;;11.72;66.33;102066.02;105952;1280;22746;-57
2023/01/21 15:15:23;;;;;;;10.30;2.00;;;;;;;11.69;66.48;102070.04;105781;1286;22550;-57
2023/01/21 15:17:53;;;;;;;4.40;1.20;;;;;;;11.66;66.79;102068.13;105890;1283;22795;-57
2023/01/21 15:20:44;;;;;;;4.00;1.60;;;;;;;11.63;66.93;102065.69;105870;1283;24253;-57
2023/01/21 15:23:29;;;;;;;4.80;1.40;;;;;;;11.57;67.24;102062.77;105996;1279;24288;-57
2023/01/21 15:26:11;;;;;;;3.60;1.40;;;;;;;11.53;67.43;102060.19;106114;1258;22538;-57
2023/01/21 15:28:43;;;;;;;7.00;1.90;;;;;;;11.49;67.68;102071.15;106590;1257;24336;-57
2023/01/21 15:31:20;;;;;;;8.90;2.00;;;;;;;11.44;68.12;102074.30;106385;1272;22533;-57
2023/01/21 15:34:08;;;;;;;6.40;2.20;;;;;;;11.39;68.37;102076.23;106605;1272;22547;-57
2023/01/21 15:36:45;;;;;;;5.20;1.60;;;;;;;11.36;68.61;102082.49;106012;1281;24264;-57
2023/01/21 15:39:18;;;;;;;7.90;2.20;;;;;;;11.34;68.78;102083.89;106030;1282;24380;-57
2023/01/21 15:42:09;;;;;;;8.40;1.60;;;;;;;11.33;69.08;102086.65;106033;1280;22552;-57
2023/01/21 15:44:43;;;;;;;8.30;2.00;;;;;;;11.33;69.28;102087.38;106150;1273;22810;-57
2023/01/21 15:47:58;;;;;;;8.10;2.80;;;;;;;11.33;69.47;102093.27;105226;1264;1003028;-57
2023/01/21 15:50:37;;;;;;;9.60;1.90;;;;;;;11.32;69.55;102095.54;105559;1290;24268;-57
2023/01/21 15:53:27;;;;;;;5.20;2.00;;;;;;;11.32;69.80;102097.97;105588;1289;24310;-57
2023/01/21 15:56:22;;;;;;;6.60;1.70;;;;;;;11.32;70.03;102100.92;105609;1289;25945;-57
2023/01/21 15:58:57;;;;;;;9.20;2.10;;;;;;;11.33;70.10;102107.00;105656;1292;24294;-57
2023/01/21 20:58:43;;;;;;;16.40;6.20;;;;;;;9.56;91.70;102360.20;104711;1300;24305;-60
2023/01/21 21:01:11;;;;;;;17.90;6.50;;;;;;;9.65;90.71;102357.16;105923;1280;25480;-60
2023/01/21 21:03:39;;;;;;;18.30;6.20;;;;;;;9.73;90.28;102359.29;106011;1281;25390;-60
2023/01/21 21:06:15;;;;;;;13.20;5.20;;;;;;;9.82;90.02;102354.16;105891;1284;218642;-60
2023/01/21 21:08:42;;;;;;;16.40;5.30;;;;;;;9.92;89.60;102353.87;106335;1284;24373;-60
2023/01/21 21:11:09;;;;;;;20.50;6.40;;;;;;;10.00;89.19;102356.87;106338;1279;25418;-60
2023/01/21 21:13:37;;;;;;;15.50;6.00;;;;;;;10.09;88.96;102361.79;106349;1279;22658;-60
2023/01/21 21:16:19;;;;;;;17.60;5.50;;;;;;;10.14;88.70;102360.29;106281;1282;22680;-60
2023/01/21 21:18:47;;;;;;;17.30;5.30;;;;;;;10.21;88.39;102358.92;106002;1285;25347;-60
2023/01/21 21:21:15;;;;;;;18.40;6.50;;;;;;;10.26;88.10;102360.00;106207;1282;22526;-60
2023/01/21 21:23:45;;;;;;;12.00;5.50;;;;;;;10.31;87.97;102358.12;105768;1279;22655;-60
2023/01/21 21:26:20;;;;;;;14.40;4.80;;;;;;;10.35;87.93;102364.55;106242;1283;25386;-60
2023/01/21 21:28:48;;;;;;;14.70;4.80;;;;;;;10.41;87.71;102368.05;106369;1279;24270;-60
2023/01/21 21:31:16;;;;;;;11.30;5.00;;;;;;;10.46;87.36;102365.81;105991;1283;23995;-60
2023/01/21 21:33:43;;;;;;;18.40;4.60;;;;;;;10.50;87.09;102363.58;105661;1285;25360;-60
2023/01/21 21:36:15;;;;;;;15.40;5.00;;;;;;;10.53;86.73;102364.98;106189;1279;24400;-60
2023/01/21 21:38:42;;;;;;;;;;;;;;;10.53;86.53;102366.20;105987;1279;25469;-61
2023/01/21 21:44:03;;;;;;;13.20;4.80;;;;;;;10.55;85.91;102363.95;106364;1281;25504;-61
2023/01/21 21:49:19;;;;;;;16.40;5.10;;;;;;;10.54;84.97;102367.94;106675;1278;25588;-60
2023/01/21 21:51:46;;;;;;;12.60;4.90;;;;;;;10.53;84.85;102370.90;106724;1278;22527;-60
2023/01/21 21:54:14;;;;;;;16.30;4.90;;;;;;;10.53;84.59;102372.80;106796;1276;25328;-60
2023/01/21 21:56:41;;;;;;;13.60;4.40;;;;;;;10.54;84.31;102376.79;106839;1273;25348;-61
2023/01/21 21:59:10;;;;;;;11.20;4.60;;;;;;;10.58;83.96;102373.34;106440;1272;25396;-61
2023/01/21 22:01:42;;;;;;;12.80;6.80;;;;;;;10.59;83.68;102371.44;106585;1272;25495;-61
2023/01/21 22:04:09;;;;;;;12.40;5.50;;;;;;;10.58;83.24;102369.01;106304;1277;22645;-62
2023/01/21 22:06:36;;;;;;;11.60;4.60;;;;;;;10.55;82.82;102370.37;106553;1274;25338;-61
2023/01/21 22:09:04;;;;;;;20.60;5.50;;;;;;;10.50;82.64;102374.67;106658;1279;25415;-61
2023/01/21 22:11:31;;;;;;;11.90;5.20;;;;;;;10.48;82.27;102376.23;106054;1277;25539;-61
2023/01/21 22:14:02;;;;;;;14.90;4.30;;;;;;;10.46;81.99;102380.55;106291;1276;25360;-61
2023/01/21 22:16:30;;;;;;;11.10;4.00;;;;;;;10.43;81.86;102380.55;106433;1273;25397;-62
2023/01/21 22:18:58;;;;;;;13.30;5.30;;;;;;;10.41;81.66;102385.05;106708;1277;25328;-62
2023/01/21 22:21:27;;;;;;;11.10;3.80;;;;;;;10.39;81.56;102391.30;106810;1273;25486;-61
2023/01/21 22:23:55;;;;;;;10.70;4.60;;;;;;;10.36;81.23;102395.45;106749;1273;25569;-62
2023/01/21 22:26:24;;;;;;;12.00;4.60;;;;;;;10.34;80.92;102387.63;106700;1272;25363;-62
2023/01/21 22:28:51;;;;;;;11.30;4.50;;;;;;;10.32;80.81;102383.79;106413;1272;22537;-63
2023/01/21 22:31:21;;;;;;;12.90;5.40;;;;;;;10.31;80.73;102382.05;106414;1256;24449;-61
2023/01/21 22:33:48;;;;;;;14.10;5.80;;;;;;;10.33;80.69;102386.40;106227;1276;23268;-63
2023/01/21 22:36:16;;;;;;;20.60;7.10;;;;;;;10.35;80.39;102387.45;106161;1278;25330;-62
2023/01/21 22:38:44;;;;;;;16.80;6.50;;;;;;;10.33;79.88;102395.95;106382;1274;24250;-62
2023/01/21 22:41:12;;;;;;;17.90;8.20;;;;;;;10.30;79.75;102400.26;106464;1274;24228;-62
2023/01/21 22:43:40;;;;;;;10.10;4.50;;;;;;;10.26;79.73;102395.21;106480;1274;22540;-62
2023/01/21 22:46:09;;;;;;;9.60;3.30;;;;;;;10.28;80.02;102399.20;106662;1273;25310;-62
2023/01/21 22:48:36;;;;;;;8.00;3.60;;;;;;;10.33;80.14;102408.43;106753;1276;22541;-63
2023/01/21 22:51:04;;;;;;;17.70;4.20;;;;;;;10.36;79.93;102405.33;106661;1270;25474;-62
2023/01/21 22:53:32;;;;;;;6.70;3.50;;;;;;;10.38;79.75;102406.38;106775;1267;24304;-63
2023/01/21 22:56:01;;;;;;;10.40;3.70;;;;;;;10.37;79.45;102412.09;106794;1274;24233;-63
2023/01/21 22:58:29;;;;;;;9.90;3.80;;;;;;;10.35;79.32;102406.89;106771;1272;22517;-62
2023/01/21 23:00:57;;;;;;;7.40;3.80;;;;;;;10.22;79.94;102413.39;106777;1272;26648;-62
2023/01/21 23:03:24;;;;;;;8.80;3.50;;;;;;;10.19;80.09;102421.70;106604;1270;25440;-62
2023/01/21 23:05:51;;;;;;;10.40;4.60;;;;;;;10.19;79.84;102424.30;106742;1274;26524;-62
2023/01/21 23:08:19;;;;;;;9.50;3.30;;;;;;;10.19;79.78;102423.78;106839;1272;25551;-62
2023/01/21 23:10:46;;;;;;;10.60;5.20;;;;;;;10.31;79.12;102419.86;106359;1273;25429;-63
2023/01/21 23:13:13;;;;;;;9.50;3.90;;;;;;;10.32;78.80;102416.58;106365;1274;25450;-62
2023/01/21 23:15:45;;;;;;;8.30;2.80;;;;;;;10.20;79.30;102418.08;107082;1267;25407;-62
2023/01/21 23:18:13;;;;;;;;;;;;;;;10.20;79.55;102424.31;106730;1273;24518;-62
2023/01/21 23:20:40;;;;;;;8.10;3.60;;;;;;;10.22;79.75;102427.80;107006;1274;25352;-63
2023/01/21 23:23:08;;;;;;;7.70;2.80;;;;;;;10.24;79.65;102427.46;106822;1273;25354;-63
2023/01/21 23:25:42;;;;;;;4.80;2.50;;;;;;;10.22;79.89;102424.14;107036;1274;22533;-63
2023/01/21 23:28:10;;;;;;;6.20;2.60;;;;;;;10.37;79.30;102421.46;107079;1267;25394;-65
2023/01/21 23:30:37;;;;;;;4.60;2.80;;;;;;;10.40;79.01;102428.41;107086;1271;25334;-65
2023/01/21 23:33:04;;;;;;;4.30;3.10;;;;;;;10.41;78.92;102434.50;107059;1270;25362;-64
2023/01/21 23:35:32;;;;;;;4.70;2.70;;;;;;;10.42;78.73;102440.05;107064;1267;25536;-65
2023/01/21 23:38:01;;;;;;;7.10;3.30;;;;;;;10.42;78.59;102438.48;107166;1267;25297;-64
2023/01/21 23:40:29;;;;;;;9.60;3.40;;;;;;;10.43;78.42;102447.69;106914;1270;25353;-65
2023/01/21 23:42:56;;;;;;;8.40;2.80;;;;;;;10.44;78.44;102449.43;106865;1273;25373;-65
2023/01/21 23:45:23;;;;;;;9.70;3.30;;;;;;;10.44;78.34;102450.64;107139;1267;25492;-64
2023/01/21 23:47:50;;;;;;;8.20;3.50;;;;;;;10.43;78.14;102453.23;107038;1273;25353;-64
2023/01/21 23:50:17;;;;;;;9.80;3.00;;;;;;;10.42;78.20;102453.75;106796;1275;25373;-64
2023/01/21 23:52:45;;;;;;;9.70;2.80;;;;;;;10.41;78.11;102451.66;106758;1274;25331;-64
2023/01/21 23:55:13;;;;;;;8.10;2.80;;;;;;;10.41;78.17;102453.58;107112;1267;24513;-64
2023/01/21 23:57:40;;;;;;;7.50;3.20;;;;;;;10.40;77.92;102449.76;107115;1268;25415;-65
